sensor_id;sensor_type;location;lat;lon;timestamp;P1;durP1;ratioP1;P2;durP2;ratioP2
9485;SDS011;4781;48.776;9.200;2022-07-23T00:00:49;4.78;;;2.75;;
9485;SDS011;4781;48.776;9.200;2022-07-23T00:03:18;5.22;;;3.35;;
9485;SDS011;4781;48.776;9.200;2022-07-23T00:05:46;6.53;;;3.05;;
9485;SDS011;4781;48.776;9.200;2022-07-23T00:08:15;5.33;;;3.30;;
9485;SDS011;4781;48.776;9.200;2022-07-23T00:10:43;5.37;;;3.22;;
9485;SDS011;4781;48.776;9.200;2022-07-23T00:13:12;5.25;;;2.42;;
9485;SDS011;4781;48.776;9.200;2022-07-23T00:15:40;4.10;;;2.52;;
9485;SDS011;4781;48.776;9.200;2022-07-23T00:18:09;6.67;;;2.95;;
9485;SDS011;4781;48.776;9.200;2022-07-23T00:20:37;6.97;;;2.58;;
9485;SDS011;4781;48.776;9.200;2022-07-23T00:23:06;4.97;;;3.10;;
9485;SDS011;4781;48.776;9.200;2022-07-23T00:25:34;6.20;;;2.65;;
9485;SDS011;4781;48.776;9.200;2022-07-23T00:28:03;5.10;;;2.72;;
9485;SDS011;4781;48.776;9.200;2022-07-23T00:30:32;5.40;;;2.58;;
9485;SDS011;4781;48.776;9.200;2022-07-23T00:33:02;4.80;;;2.22;;
9485;SDS011;4781;48.776;9.200;2022-07-23T00:35:34;4.72;;;2.37;;
9485;SDS011;4781;48.776;9.200;2022-07-23T00:38:06;4.33;;;2.00;;
9485;SDS011;4781;48.776;9.200;2022-07-23T00:40:36;4.45;;;2.40;;
9485;SDS011;4781;48.776;9.200;2022-07-23T00:43:05;5.20;;;2.47;;
9485;SDS011;4781;48.776;9.200;2022-07-23T00:45:34;4.90;;;2.90;;
9485;SDS011;4781;48.776;9.200;2022-07-23T00:48:03;7.08;;;3.05;;
9485;SDS011;4781;48.776;9.200;2022-07-23T00:50:31;3.65;;;2.47;;
9485;SDS011;4781;48.776;9.200;2022-07-23T00:53:00;4.67;;;2.72;;
9485;SDS011;4781;48.776;9.200;2022-07-23T00:55:28;4.65;;;2.55;;
9485;SDS011;4781;48.776;9.200;2022-07-23T00:57:57;5.45;;;2.77;;
9485;SDS011;4781;48.776;9.200;2022-07-23T01:00:26;4.42;;;2.77;;
9485;SDS011;4781;48.776;9.200;2022-07-23T01:02:55;5.78;;;3.10;;
9485;SDS011;4781;48.776;9.200;2022-07-23T01:05:24;3.50;;;2.30;;
9485;SDS011;4781;48.776;9.200;2022-07-23T01:08:14;4.00;;;2.27;;
9485;SDS011;4781;48.776;9.200;2022-07-23T01:10:42;5.33;;;2.35;;
9485;SDS011;4781;48.776;9.200;2022-07-23T01:13:10;4.28;;;2.25;;
9485;SDS011;4781;48.776;9.200;2022-07-23T01:15:39;6.40;;;2.58;;
9485;SDS011;4781;48.776;9.200;2022-07-23T01:18:07;5.55;;;2.75;;
9485;SDS011;4781;48.776;9.200;2022-07-23T01:20:38;5.17;;;2.45;;
9485;SDS011;4781;48.776;9.200;2022-07-23T01:23:06;4.60;;;2.30;;
9485;SDS011;4781;48.776;9.200;2022-07-23T01:25:35;4.17;;;2.80;;
9485;SDS011;4781;48.776;9.200;2022-07-23T01:28:03;5.45;;;2.40;;
9485;SDS011;4781;48.776;9.200;2022-07-23T01:30:32;4.17;;;2.55;;
9485;SDS011;4781;48.776;9.200;2022-07-23T01:33:00;5.47;;;2.70;;
9485;SDS011;4781;48.776;9.200;2022-07-23T01:35:28;4.95;;;2.52;;
9485;SDS011;4781;48.776;9.200;2022-07-23T01:37:57;5.62;;;2.50;;
9485;SDS011;4781;48.776;9.200;2022-07-23T01:40:25;4.03;;;2.35;;
9485;SDS011;4781;48.776;9.200;2022-07-23T01:42:53;4.40;;;2.70;;
9485;SDS011;4781;48.776;9.200;2022-07-23T01:45:22;5.47;;;2.20;;
9485;SDS011;4781;48.776;9.200;2022-07-23T01:47:50;5.80;;;2.52;;
9485;SDS011;4781;48.776;9.200;2022-07-23T01:50:19;6.05;;;2.50;;
9485;SDS011;4781;48.776;9.200;2022-07-23T01:52:47;4.97;;;2.45;;
9485;SDS011;4781;48.776;9.200;2022-07-23T01:55:15;4.37;;;2.75;;
9485;SDS011;4781;48.776;9.200;2022-07-23T01:57:44;5.05;;;2.87;;
9485;SDS011;4781;48.776;9.200;2022-07-23T02:00:13;5.00;;;2.63;;
9485;SDS011;4781;48.776;9.200;2022-07-23T02:02:42;4.30;;;2.35;;
9485;SDS011;4781;48.776;9.200;2022-07-23T02:05:10;3.87;;;2.40;;
9485;SDS011;4781;48.776;9.200;2022-07-23T02:07:39;4.97;;;2.47;;
9485;SDS011;4781;48.776;9.200;2022-07-23T02:10:08;4.62;;;2.42;;
9485;SDS011;4781;48.776;9.200;2022-07-23T02:12:36;4.62;;;2.80;;
9485;SDS011;4781;48.776;9.200;2022-07-23T02:15:05;5.80;;;3.02;;
9485;SDS011;4781;48.776;9.200;2022-07-23T02:17:34;4.20;;;2.55;;
9485;SDS011;4781;48.776;9.200;2022-07-23T02:20:03;5.08;;;2.75;;
9485;SDS011;4781;48.776;9.200;2022-07-23T02:22:32;4.47;;;2.30;;
9485;SDS011;4781;48.776;9.200;2022-07-23T02:25:02;4.62;;;2.70;;
9485;SDS011;4781;48.776;9.200;2022-07-23T02:27:32;5.33;;;2.75;;
9485;SDS011;4781;48.776;9.200;2022-07-23T02:30:02;4.35;;;2.65;;
9485;SDS011;4781;48.776;9.200;2022-07-23T02:32:31;4.62;;;2.62;;
9485;SDS011;4781;48.776;9.200;2022-07-23T02:35:00;4.47;;;2.45;;
9485;SDS011;4781;48.776;9.200;2022-07-23T02:37:30;3.65;;;2.50;;
9485;SDS011;4781;48.776;9.200;2022-07-23T02:39:59;5.55;;;2.90;;
9485;SDS011;4781;48.776;9.200;2022-07-23T02:42:27;4.70;;;2.80;;
9485;SDS011;4781;48.776;9.200;2022-07-23T02:44:55;4.50;;;2.90;;
9485;SDS011;4781;48.776;9.200;2022-07-23T02:47:24;4.30;;;2.40;;
9485;SDS011;4781;48.776;9.200;2022-07-23T02:49:52;4.95;;;2.70;;
9485;SDS011;4781;48.776;9.200;2022-07-23T02:52:21;5.67;;;2.77;;
9485;SDS011;4781;48.776;9.200;2022-07-23T02:54:49;5.37;;;2.77;;
9485;SDS011;4781;48.776;9.200;2022-07-23T02:57:17;4.75;;;2.65;;
9485;SDS011;4781;48.776;9.200;2022-07-23T02:59:46;4.10;;;2.40;;
9485;SDS011;4781;48.776;9.200;2022-07-23T03:02:14;4.15;;;2.40;;
9485;SDS011;4781;48.776;9.200;2022-07-23T03:04:43;4.90;;;2.70;;
9485;SDS011;4781;48.776;9.200;2022-07-23T03:07:11;7.35;;;2.72;;
9485;SDS011;4781;48.776;9.200;2022-07-23T03:09:39;5.17;;;2.87;;
9485;SDS011;4781;48.776;9.200;2022-07-23T03:12:09;5.62;;;2.72;;
9485;SDS011;4781;48.776;9.200;2022-07-23T03:14:37;4.50;;;2.70;;
9485;SDS011;4781;48.776;9.200;2022-07-23T03:17:06;4.70;;;3.00;;
9485;SDS011;4781;48.776;9.200;2022-07-23T03:19:35;8.38;;;3.42;;
9485;SDS011;4781;48.776;9.200;2022-07-23T03:22:04;4.72;;;2.85;;
9485;SDS011;4781;48.776;9.200;2022-07-23T03:24:33;4.75;;;2.85;;
9485;SDS011;4781;48.776;9.200;2022-07-23T03:27:25;6.10;;;2.83;;
9485;SDS011;4781;48.776;9.200;2022-07-23T03:29:52;7.47;;;3.17;;
9485;SDS011;4781;48.776;9.200;2022-07-23T03:32:22;5.72;;;3.20;;
9485;SDS011;4781;48.776;9.200;2022-07-23T03:34:51;4.15;;;2.77;;
9485;SDS011;4781;48.776;9.200;2022-07-23T03:37:20;5.20;;;3.47;;
9485;SDS011;4781;48.776;9.200;2022-07-23T03:39:48;5.47;;;3.12;;
9485;SDS011;4781;48.776;9.200;2022-07-23T03:42:17;7.47;;;3.15;;
9485;SDS011;4781;48.776;9.200;2022-07-23T03:44:45;4.97;;;3.37;;
9485;SDS011;4781;48.776;9.200;2022-07-23T03:47:14;6.60;;;3.40;;
9485;SDS011;4781;48.776;9.200;2022-07-23T03:49:43;6.25;;;3.40;;
9485;SDS011;4781;48.776;9.200;2022-07-23T03:52:11;6.50;;;3.40;;
9485;SDS011;4781;48.776;9.200;2022-07-23T03:54:39;5.42;;;3.27;;
9485;SDS011;4781;48.776;9.200;2022-07-23T03:57:08;5.92;;;3.60;;
9485;SDS011;4781;48.776;9.200;2022-07-23T03:59:36;5.05;;;3.30;;
9485;SDS011;4781;48.776;9.200;2022-07-23T04:02:05;5.67;;;3.40;;
9485;SDS011;4781;48.776;9.200;2022-07-23T04:04:33;8.85;;;3.45;;
9485;SDS011;4781;48.776;9.200;2022-07-23T04:07:01;4.90;;;3.27;;
9485;SDS011;4781;48.776;9.200;2022-07-23T04:09:30;6.42;;;3.25;;
9485;SDS011;4781;48.776;9.200;2022-07-23T04:11:58;5.40;;;3.45;;
9485;SDS011;4781;48.776;9.200;2022-07-23T04:14:27;6.80;;;4.20;;
9485;SDS011;4781;48.776;9.200;2022-07-23T04:16:55;6.67;;;3.70;;
9485;SDS011;4781;48.776;9.200;2022-07-23T04:19:24;5.72;;;3.22;;
9485;SDS011;4781;48.776;9.200;2022-07-23T04:21:53;5.78;;;3.30;;
9485;SDS011;4781;48.776;9.200;2022-07-23T04:24:21;5.83;;;3.50;;
9485;SDS011;4781;48.776;9.200;2022-07-23T04:26:49;6.12;;;3.10;;
9485;SDS011;4781;48.776;9.200;2022-07-23T04:29:19;7.15;;;3.52;;
9485;SDS011;4781;48.776;9.200;2022-07-23T04:31:47;6.10;;;3.62;;
9485;SDS011;4781;48.776;9.200;2022-07-23T04:34:15;6.45;;;3.05;;
9485;SDS011;4781;48.776;9.200;2022-07-23T04:36:44;6.35;;;3.02;;
9485;SDS011;4781;48.776;9.200;2022-07-23T04:39:12;6.37;;;3.45;;
9485;SDS011;4781;48.776;9.200;2022-07-23T04:41:41;5.42;;;3.30;;
9485;SDS011;4781;48.776;9.200;2022-07-23T04:44:09;7.90;;;3.60;;
9485;SDS011;4781;48.776;9.200;2022-07-23T04:46:38;5.78;;;3.12;;
9485;SDS011;4781;48.776;9.200;2022-07-23T04:49:06;5.28;;;3.35;;
9485;SDS011;4781;48.776;9.200;2022-07-23T04:51:35;5.03;;;3.10;;
9485;SDS011;4781;48.776;9.200;2022-07-23T04:54:03;5.47;;;3.35;;
9485;SDS011;4781;48.776;9.200;2022-07-23T04:56:32;5.17;;;3.12;;
9485;SDS011;4781;48.776;9.200;2022-07-23T04:59:00;6.70;;;3.17;;
9485;SDS011;4781;48.776;9.200;2022-07-23T05:01:29;4.83;;;3.13;;
9485;SDS011;4781;48.776;9.200;2022-07-23T05:03:57;5.65;;;2.98;;
9485;SDS011;4781;48.776;9.200;2022-07-23T05:06:25;5.85;;;2.83;;
9485;SDS011;4781;48.776;9.200;2022-07-23T05:08:54;6.67;;;3.08;;
9485;SDS011;4781;48.776;9.200;2022-07-23T05:11:22;4.28;;;2.72;;
9485;SDS011;4781;48.776;9.200;2022-07-23T05:13:50;7.12;;;3.17;;
9485;SDS011;4781;48.776;9.200;2022-07-23T05:16:19;4.37;;;3.02;;
9485;SDS011;4781;48.776;9.200;2022-07-23T05:18:47;6.17;;;3.42;;
9485;SDS011;4781;48.776;9.200;2022-07-23T05:21:16;4.70;;;2.58;;
9485;SDS011;4781;48.776;9.200;2022-07-23T05:23:44;6.50;;;3.27;;
9485;SDS011;4781;48.776;9.200;2022-07-23T05:26:13;6.60;;;2.85;;
9485;SDS011;4781;48.776;9.200;2022-07-23T05:28:41;4.62;;;2.70;;
9485;SDS011;4781;48.776;9.200;2022-07-23T05:31:09;5.22;;;3.12;;
9485;SDS011;4781;48.776;9.200;2022-07-23T05:33:38;5.92;;;3.22;;
9485;SDS011;4781;48.776;9.200;2022-07-23T05:36:06;6.10;;;3.35;;
9485;SDS011;4781;48.776;9.200;2022-07-23T05:38:35;7.12;;;3.30;;
9485;SDS011;4781;48.776;9.200;2022-07-23T05:41:04;9.30;;;3.40;;
9485;SDS011;4781;48.776;9.200;2022-07-23T05:43:32;5.80;;;3.27;;
9485;SDS011;4781;48.776;9.200;2022-07-23T05:46:00;5.33;;;3.42;;
9485;SDS011;4781;48.776;9.200;2022-07-23T05:48:29;5.40;;;3.17;;
9485;SDS011;4781;48.776;9.200;2022-07-23T05:50:57;7.78;;;3.30;;
9485;SDS011;4781;48.776;9.200;2022-07-23T05:53:26;5.03;;;3.10;;
9485;SDS011;4781;48.776;9.200;2022-07-23T05:55:55;5.25;;;2.85;;
9485;SDS011;4781;48.776;9.200;2022-07-23T05:58:23;6.03;;;3.35;;
9485;SDS011;4781;48.776;9.200;2022-07-23T06:00:51;7.47;;;3.30;;
9485;SDS011;4781;48.776;9.200;2022-07-23T06:03:20;5.00;;;3.20;;
9485;SDS011;4781;48.776;9.200;2022-07-23T06:05:48;6.05;;;3.20;;
9485;SDS011;4781;48.776;9.200;2022-07-23T06:08:16;5.60;;;3.08;;
9485;SDS011;4781;48.776;9.200;2022-07-23T06:10:45;5.67;;;2.98;;
9485;SDS011;4781;48.776;9.200;2022-07-23T06:13:13;5.40;;;3.05;;
9485;SDS011;4781;48.776;9.200;2022-07-23T06:15:49;6.75;;;3.00;;
9485;SDS011;4781;48.776;9.200;2022-07-23T06:18:14;4.55;;;2.87;;
9485;SDS011;4781;48.776;9.200;2022-07-23T06:20:42;5.35;;;3.27;;
9485;SDS011;4781;48.776;9.200;2022-07-23T06:23:11;4.90;;;3.08;;
9485;SDS011;4781;48.776;9.200;2022-07-23T06:25:39;6.10;;;3.25;;
9485;SDS011;4781;48.776;9.200;2022-07-23T06:28:08;7.40;;;3.35;;
9485;SDS011;4781;48.776;9.200;2022-07-23T06:30:36;5.33;;;3.17;;
9485;SDS011;4781;48.776;9.200;2022-07-23T06:33:04;5.22;;;3.15;;
9485;SDS011;4781;48.776;9.200;2022-07-23T06:35:33;5.20;;;3.30;;
9485;SDS011;4781;48.776;9.200;2022-07-23T06:38:01;5.87;;;3.02;;
9485;SDS011;4781;48.776;9.200;2022-07-23T06:40:30;5.35;;;3.40;;
9485;SDS011;4781;48.776;9.200;2022-07-23T06:42:58;6.90;;;3.20;;
9485;SDS011;4781;48.776;9.200;2022-07-23T06:45:27;6.25;;;3.10;;
9485;SDS011;4781;48.776;9.200;2022-07-23T06:47:55;6.28;;;3.33;;
9485;SDS011;4781;48.776;9.200;2022-07-23T06:50:24;4.55;;;2.92;;
9485;SDS011;4781;48.776;9.200;2022-07-23T06:52:52;5.10;;;2.98;;
9485;SDS011;4781;48.776;9.200;2022-07-23T06:55:21;6.50;;;3.58;;
9485;SDS011;4781;48.776;9.200;2022-07-23T06:57:49;6.00;;;3.22;;
9485;SDS011;4781;48.776;9.200;2022-07-23T07:00:18;6.50;;;3.50;;
9485;SDS011;4781;48.776;9.200;2022-07-23T07:02:46;5.87;;;3.55;;
9485;SDS011;4781;48.776;9.200;2022-07-23T07:05:15;7.78;;;3.58;;
9485;SDS011;4781;48.776;9.200;2022-07-23T07:07:43;6.25;;;3.27;;
9485;SDS011;4781;48.776;9.200;2022-07-23T07:10:12;6.12;;;3.52;;
9485;SDS011;4781;48.776;9.200;2022-07-23T07:12:42;5.25;;;3.40;;
9485;SDS011;4781;48.776;9.200;2022-07-23T07:15:10;5.42;;;3.20;;
9485;SDS011;4781;48.776;9.200;2022-07-23T07:17:38;5.10;;;3.30;;
9485;SDS011;4781;48.776;9.200;2022-07-23T07:20:08;6.67;;;3.30;;
9485;SDS011;4781;48.776;9.200;2022-07-23T07:22:37;5.28;;;3.40;;
9485;SDS011;4781;48.776;9.200;2022-07-23T07:25:05;4.60;;;2.65;;
9485;SDS011;4781;48.776;9.200;2022-07-23T07:27:34;5.92;;;3.65;;
9485;SDS011;4781;48.776;9.200;2022-07-23T07:30:03;6.87;;;3.35;;
9485;SDS011;4781;48.776;9.200;2022-07-23T07:32:33;6.62;;;3.60;;
9485;SDS011;4781;48.776;9.200;2022-07-23T07:35:03;5.15;;;3.35;;
9485;SDS011;4781;48.776;9.200;2022-07-23T07:37:33;5.87;;;3.20;;
9485;SDS011;4781;48.776;9.200;2022-07-23T07:40:02;5.92;;;3.33;;
9485;SDS011;4781;48.776;9.200;2022-07-23T07:42:31;6.12;;;3.60;;
9485;SDS011;4781;48.776;9.200;2022-07-23T07:44:59;5.25;;;3.42;;
9485;SDS011;4781;48.776;9.200;2022-07-23T07:47:28;7.20;;;3.52;;
9485;SDS011;4781;48.776;9.200;2022-07-23T07:49:56;6.28;;;3.60;;
9485;SDS011;4781;48.776;9.200;2022-07-23T07:52:25;5.17;;;3.37;;
9485;SDS011;4781;48.776;9.200;2022-07-23T07:54:53;5.35;;;3.20;;
9485;SDS011;4781;48.776;9.200;2022-07-23T07:57:21;5.03;;;3.33;;
9485;SDS011;4781;48.776;9.200;2022-07-23T07:59:50;5.97;;;3.37;;
9485;SDS011;4781;48.776;9.200;2022-07-23T08:02:18;9.08;;;3.12;;
9485;SDS011;4781;48.776;9.200;2022-07-23T08:04:47;6.08;;;3.77;;
9485;SDS011;4781;48.776;9.200;2022-07-23T08:07:15;6.65;;;2.95;;
9485;SDS011;4781;48.776;9.200;2022-07-23T08:09:43;4.95;;;3.22;;
9485;SDS011;4781;48.776;9.200;2022-07-23T08:12:12;6.15;;;3.30;;
9485;SDS011;4781;48.776;9.200;2022-07-23T08:14:40;6.83;;;3.40;;
9485;SDS011;4781;48.776;9.200;2022-07-23T08:17:10;5.08;;;3.10;;
9485;SDS011;4781;48.776;9.200;2022-07-23T08:19:38;6.45;;;3.27;;
9485;SDS011;4781;48.776;9.200;2022-07-23T08:22:07;6.05;;;3.47;;
9485;SDS011;4781;48.776;9.200;2022-07-23T08:24:35;5.05;;;2.92;;
9485;SDS011;4781;48.776;9.200;2022-07-23T08:27:04;5.08;;;3.12;;
9485;SDS011;4781;48.776;9.200;2022-07-23T08:29:32;5.35;;;3.22;;
9485;SDS011;4781;48.776;9.200;2022-07-23T08:32:00;5.12;;;2.90;;
9485;SDS011;4781;48.776;9.200;2022-07-23T08:34:29;7.12;;;3.45;;
9485;SDS011;4781;48.776;9.200;2022-07-23T08:36:57;4.80;;;3.17;;
9485;SDS011;4781;48.776;9.200;2022-07-23T08:39:25;5.50;;;3.52;;
9485;SDS011;4781;48.776;9.200;2022-07-23T08:41:54;5.97;;;3.72;;
9485;SDS011;4781;48.776;9.200;2022-07-23T08:44:22;5.97;;;3.87;;
9485;SDS011;4781;48.776;9.200;2022-07-23T08:46:51;7.65;;;3.40;;
9485;SDS011;4781;48.776;9.200;2022-07-23T08:49:20;5.22;;;3.22;;
9485;SDS011;4781;48.776;9.200;2022-07-23T08:51:48;5.78;;;2.95;;
9485;SDS011;4781;48.776;9.200;2022-07-23T08:54:17;5.28;;;3.00;;
9485;SDS011;4781;48.776;9.200;2022-07-23T08:56:46;6.22;;;3.42;;
9485;SDS011;4781;48.776;9.200;2022-07-23T08:59:15;8.25;;;3.50;;
9485;SDS011;4781;48.776;9.200;2022-07-23T09:01:43;5.70;;;3.22;;
9485;SDS011;4781;48.776;9.200;2022-07-23T09:04:11;4.95;;;3.12;;
9485;SDS011;4781;48.776;9.200;2022-07-23T09:06:40;5.30;;;3.35;;
9485;SDS011;4781;48.776;9.200;2022-07-23T09:09:19;8.65;;;3.67;;
9485;SDS011;4781;48.776;9.200;2022-07-23T09:11:48;6.10;;;3.30;;
9485;SDS011;4781;48.776;9.200;2022-07-23T09:14:40;5.90;;;3.37;;
9485;SDS011;4781;48.776;9.200;2022-07-23T09:17:14;6.45;;;3.10;;
9485;SDS011;4781;48.776;9.200;2022-07-23T09:19:44;5.53;;;3.47;;
9485;SDS011;4781;48.776;9.200;2022-07-23T09:22:23;5.60;;;3.10;;
9485;SDS011;4781;48.776;9.200;2022-07-23T09:25:03;4.70;;;2.92;;
9485;SDS011;4781;48.776;9.200;2022-07-23T09:27:48;6.35;;;3.33;;
9485;SDS011;4781;48.776;9.200;2022-07-23T09:30:27;6.20;;;4.00;;
9485;SDS011;4781;48.776;9.200;2022-07-23T09:33:08;5.28;;;3.33;;
9485;SDS011;4781;48.776;9.200;2022-07-23T09:35:51;4.95;;;3.22;;
9485;SDS011;4781;48.776;9.200;2022-07-23T09:38:23;5.12;;;3.00;;
9485;SDS011;4781;48.776;9.200;2022-07-23T09:41:14;4.05;;;2.60;;
9485;SDS011;4781;48.776;9.200;2022-07-23T09:43:36;4.97;;;2.83;;
9485;SDS011;4781;48.776;9.200;2022-07-23T09:46:17;5.58;;;3.12;;
9485;SDS011;4781;48.776;9.200;2022-07-23T09:48:50;4.75;;;2.90;;
9485;SDS011;4781;48.776;9.200;2022-07-23T09:51:22;4.40;;;3.00;;
9485;SDS011;4781;48.776;9.200;2022-07-23T09:54:03;5.15;;;3.00;;
9485;SDS011;4781;48.776;9.200;2022-07-23T09:56:32;5.80;;;2.90;;
9485;SDS011;4781;48.776;9.200;2022-07-23T09:59:02;6.37;;;3.47;;
9485;SDS011;4781;48.776;9.200;2022-07-23T10:01:32;6.67;;;3.20;;
9485;SDS011;4781;48.776;9.200;2022-07-23T10:04:01;5.17;;;3.27;;
9485;SDS011;4781;48.776;9.200;2022-07-23T10:06:30;5.45;;;3.15;;
9485;SDS011;4781;48.776;9.200;2022-07-23T10:08:59;4.67;;;2.95;;
9485;SDS011;4781;48.776;9.200;2022-07-23T10:11:28;4.78;;;2.98;;
9485;SDS011;4781;48.776;9.200;2022-07-23T10:13:59;4.78;;;3.17;;
9485;SDS011;4781;48.776;9.200;2022-07-23T10:16:31;7.05;;;3.40;;
9485;SDS011;4781;48.776;9.200;2022-07-23T10:18:59;7.92;;;3.17;;
9485;SDS011;4781;48.776;9.200;2022-07-23T10:21:46;5.42;;;3.02;;
9485;SDS011;4781;48.776;9.200;2022-07-23T10:29:57;5.10;;;2.83;;
9485;SDS011;4781;48.776;9.200;2022-07-23T10:32:57;4.62;;;3.27;;
9485;SDS011;4781;48.776;9.200;2022-07-23T10:38:48;5.95;;;3.12;;
9485;SDS011;4781;48.776;9.200;2022-07-23T10:41:32;5.53;;;3.15;;
9485;SDS011;4781;48.776;9.200;2022-07-23T10:44:22;4.92;;;3.00;;
9485;SDS011;4781;48.776;9.200;2022-07-23T10:46:55;5.03;;;2.80;;
9485;SDS011;4781;48.776;9.200;2022-07-23T10:49:31;6.08;;;3.02;;
9485;SDS011;4781;48.776;9.200;2022-07-23T10:54:53;4.92;;;2.83;;
9485;SDS011;4781;48.776;9.200;2022-07-23T10:57:30;4.33;;;2.80;;
9485;SDS011;4781;48.776;9.200;2022-07-23T11:02:42;4.70;;;2.47;;
9485;SDS011;4781;48.776;9.200;2022-07-23T11:05:22;4.60;;;2.67;;
9485;SDS011;4781;48.776;9.200;2022-07-23T11:10:38;4.20;;;2.67;;
9485;SDS011;4781;48.776;9.200;2022-07-23T11:13:41;5.15;;;2.98;;
9485;SDS011;4781;48.776;9.200;2022-07-23T11:24:17;6.15;;;2.92;;
9485;SDS011;4781;48.776;9.200;2022-07-23T11:26:58;5.58;;;2.75;;
9485;SDS011;4781;48.776;9.200;2022-07-23T11:37:06;6.92;;;3.00;;
9485;SDS011;4781;48.776;9.200;2022-07-23T11:39:36;5.30;;;2.83;;
9485;SDS011;4781;48.776;9.200;2022-07-23T11:42:06;5.37;;;2.95;;
9485;SDS011;4781;48.776;9.200;2022-07-23T11:44:38;6.72;;;2.95;;
9485;SDS011;4781;48.776;9.200;2022-07-23T11:47:08;6.15;;;3.33;;
9485;SDS011;4781;48.776;9.200;2022-07-23T11:50:03;5.70;;;3.20;;
9485;SDS011;4781;48.776;9.200;2022-07-23T11:52:21;4.22;;;2.70;;
9485;SDS011;4781;48.776;9.200;2022-07-23T11:54:57;5.15;;;3.30;;
9485;SDS011;4781;48.776;9.200;2022-07-23T11:57:32;4.90;;;2.90;;
9485;SDS011;4781;48.776;9.200;2022-07-23T12:00:12;4.58;;;2.90;;
9485;SDS011;4781;48.776;9.200;2022-07-23T12:02:52;4.40;;;3.10;;
9485;SDS011;4781;48.776;9.200;2022-07-23T12:05:25;5.70;;;3.05;;
9485;SDS011;4781;48.776;9.200;2022-07-23T12:07:56;6.20;;;3.17;;
9485;SDS011;4781;48.776;9.200;2022-07-23T12:13:10;5.37;;;3.17;;
9485;SDS011;4781;48.776;9.200;2022-07-23T12:15:45;5.30;;;2.95;;
9485;SDS011;4781;48.776;9.200;2022-07-23T12:18:14;4.67;;;3.10;;
9485;SDS011;4781;48.776;9.200;2022-07-23T12:20:49;5.53;;;3.58;;
9485;SDS011;4781;48.776;9.200;2022-07-23T12:23:20;5.60;;;3.35;;
9485;SDS011;4781;48.776;9.200;2022-07-23T12:25:51;4.67;;;2.85;;
9485;SDS011;4781;48.776;9.200;2022-07-23T12:30:56;5.00;;;3.37;;
9485;SDS011;4781;48.776;9.200;2022-07-23T12:33:26;4.60;;;3.25;;
9485;SDS011;4781;48.776;9.200;2022-07-23T12:35:57;5.10;;;3.47;;
9485;SDS011;4781;48.776;9.200;2022-07-23T12:38:36;4.77;;;3.00;;
9485;SDS011;4781;48.776;9.200;2022-07-23T12:41:10;6.10;;;3.62;;
9485;SDS011;4781;48.776;9.200;2022-07-23T12:43:40;5.55;;;2.92;;
9485;SDS011;4781;48.776;9.200;2022-07-23T12:46:11;5.37;;;3.30;;
9485;SDS011;4781;48.776;9.200;2022-07-23T12:51:26;5.60;;;3.20;;
9485;SDS011;4781;48.776;9.200;2022-07-23T12:53:58;5.55;;;3.58;;
9485;SDS011;4781;48.776;9.200;2022-07-23T12:56:40;6.22;;;3.67;;
9485;SDS011;4781;48.776;9.200;2022-07-23T12:59:10;5.75;;;3.65;;
9485;SDS011;4781;48.776;9.200;2022-07-23T13:01:42;6.03;;;3.80;;
9485;SDS011;4781;48.776;9.200;2022-07-23T13:04:15;5.58;;;3.72;;
9485;SDS011;4781;48.776;9.200;2022-07-23T13:06:49;6.00;;;3.58;;
9485;SDS011;4781;48.776;9.200;2022-07-23T13:09:46;5.92;;;3.40;;
9485;SDS011;4781;48.776;9.200;2022-07-23T13:12:14;5.47;;;3.42;;
9485;SDS011;4781;48.776;9.200;2022-07-23T13:14:42;7.20;;;3.70;;
9485;SDS011;4781;48.776;9.200;2022-07-23T13:17:11;5.33;;;3.30;;
9485;SDS011;4781;48.776;9.200;2022-07-23T13:19:39;5.80;;;3.12;;
9485;SDS011;4781;48.776;9.200;2022-07-23T13:22:08;7.03;;;3.12;;
9485;SDS011;4781;48.776;9.200;2022-07-23T13:24:36;5.92;;;3.52;;
9485;SDS011;4781;48.776;9.200;2022-07-23T13:27:04;5.55;;;3.55;;
9485;SDS011;4781;48.776;9.200;2022-07-23T13:29:34;6.40;;;3.20;;
9485;SDS011;4781;48.776;9.200;2022-07-23T13:32:02;5.92;;;3.33;;
9485;SDS011;4781;48.776;9.200;2022-07-23T13:34:31;5.05;;;3.20;;
9485;SDS011;4781;48.776;9.200;2022-07-23T13:37:00;5.37;;;3.37;;
9485;SDS011;4781;48.776;9.200;2022-07-23T13:39:28;5.80;;;3.55;;
9485;SDS011;4781;48.776;9.200;2022-07-23T13:41:56;5.35;;;3.25;;
9485;SDS011;4781;48.776;9.200;2022-07-23T13:44:25;5.62;;;3.47;;
9485;SDS011;4781;48.776;9.200;2022-07-23T13:46:53;7.35;;;3.17;;
9485;SDS011;4781;48.776;9.200;2022-07-23T13:49:22;5.62;;;3.70;;
9485;SDS011;4781;48.776;9.200;2022-07-23T13:51:50;7.85;;;3.77;;
9485;SDS011;4781;48.776;9.200;2022-07-23T13:54:18;6.87;;;3.58;;
9485;SDS011;4781;48.776;9.200;2022-07-23T13:56:47;7.33;;;3.52;;
9485;SDS011;4781;48.776;9.200;2022-07-23T13:59:15;5.28;;;3.60;;
9485;SDS011;4781;48.776;9.200;2022-07-23T14:01:43;5.92;;;2.92;;
9485;SDS011;4781;48.776;9.200;2022-07-23T14:04:12;6.80;;;3.65;;
9485;SDS011;4781;48.776;9.200;2022-07-23T14:06:40;5.05;;;3.50;;
9485;SDS011;4781;48.776;9.200;2022-07-23T14:09:09;5.35;;;3.67;;
9485;SDS011;4781;48.776;9.200;2022-07-23T14:11:37;6.05;;;3.90;;
9485;SDS011;4781;48.776;9.200;2022-07-23T14:14:05;5.87;;;3.95;;
9485;SDS011;4781;48.776;9.200;2022-07-23T14:16:34;5.35;;;3.55;;
9485;SDS011;4781;48.776;9.200;2022-07-23T14:19:03;5.67;;;3.58;;
9485;SDS011;4781;48.776;9.200;2022-07-23T14:21:31;6.87;;;4.12;;
9485;SDS011;4781;48.776;9.200;2022-07-23T14:24:00;5.55;;;3.67;;
9485;SDS011;4781;48.776;9.200;2022-07-23T14:26:28;6.05;;;3.70;;
9485;SDS011;4781;48.776;9.200;2022-07-23T14:28:57;5.15;;;3.52;;
9485;SDS011;4781;48.776;9.200;2022-07-23T14:31:25;5.20;;;3.37;;
9485;SDS011;4781;48.776;9.200;2022-07-23T14:33:54;8.00;;;3.60;;
9485;SDS011;4781;48.776;9.200;2022-07-23T14:36:23;6.85;;;3.70;;
9485;SDS011;4781;48.776;9.200;2022-07-23T14:38:51;5.35;;;3.50;;
9485;SDS011;4781;48.776;9.200;2022-07-23T14:41:20;5.17;;;3.37;;
9485;SDS011;4781;48.776;9.200;2022-07-23T14:43:48;5.72;;;3.75;;
9485;SDS011;4781;48.776;9.200;2022-07-23T14:46:17;5.08;;;3.40;;
9485;SDS011;4781;48.776;9.200;2022-07-23T14:48:45;5.65;;;3.80;;
9485;SDS011;4781;48.776;9.200;2022-07-23T14:51:13;6.72;;;4.00;;
9485;SDS011;4781;48.776;9.200;2022-07-23T14:53:42;6.22;;;3.60;;
9485;SDS011;4781;48.776;9.200;2022-07-23T14:56:10;4.55;;;3.33;;
9485;SDS011;4781;48.776;9.200;2022-07-23T14:58:39;4.95;;;2.92;;
9485;SDS011;4781;48.776;9.200;2022-07-23T15:01:08;7.33;;;3.50;;
9485;SDS011;4781;48.776;9.200;2022-07-23T15:03:37;5.97;;;3.67;;
9485;SDS011;4781;48.776;9.200;2022-07-23T15:06:05;6.75;;;3.72;;
9485;SDS011;4781;48.776;9.200;2022-07-23T15:08:34;5.55;;;3.72;;
9485;SDS011;4781;48.776;9.200;2022-07-23T15:11:02;5.05;;;3.10;;
9485;SDS011;4781;48.776;9.200;2022-07-23T15:13:31;6.17;;;3.90;;
9485;SDS011;4781;48.776;9.200;2022-07-23T15:15:59;6.30;;;3.90;;
9485;SDS011;4781;48.776;9.200;2022-07-23T15:18:27;5.72;;;3.45;;
9485;SDS011;4781;48.776;9.200;2022-07-23T15:20:56;6.22;;;3.30;;
9485;SDS011;4781;48.776;9.200;2022-07-23T15:23:25;5.35;;;3.60;;
9485;SDS011;4781;48.776;9.200;2022-07-23T15:25:54;5.83;;;3.70;;
9485;SDS011;4781;48.776;9.200;2022-07-23T15:28:23;11.00;;;3.75;;
9485;SDS011;4781;48.776;9.200;2022-07-23T15:30:51;6.28;;;3.40;;
9485;SDS011;4781;48.776;9.200;2022-07-23T15:33:20;5.17;;;3.30;;
9485;SDS011;4781;48.776;9.200;2022-07-23T15:35:48;7.05;;;3.87;;
9485;SDS011;4781;48.776;9.200;2022-07-23T15:38:18;5.17;;;3.55;;
9485;SDS011;4781;48.776;9.200;2022-07-23T15:40:47;6.78;;;3.58;;
9485;SDS011;4781;48.776;9.200;2022-07-23T15:43:15;4.72;;;3.33;;
9485;SDS011;4781;48.776;9.200;2022-07-23T15:45:44;5.97;;;3.70;;
9485;SDS011;4781;48.776;9.200;2022-07-23T15:48:12;7.30;;;3.90;;
9485;SDS011;4781;48.776;9.200;2022-07-23T15:50:41;7.22;;;4.20;;
9485;SDS011;4781;48.776;9.200;2022-07-23T15:53:09;5.55;;;3.70;;
9485;SDS011;4781;48.776;9.200;2022-07-23T15:55:39;6.25;;;3.52;;
9485;SDS011;4781;48.776;9.200;2022-07-23T15:58:09;7.97;;;3.55;;
9485;SDS011;4781;48.776;9.200;2022-07-23T16:00:38;6.15;;;3.47;;
9485;SDS011;4781;48.776;9.200;2022-07-23T16:03:07;4.97;;;3.45;;
9485;SDS011;4781;48.776;9.200;2022-07-23T16:05:35;7.47;;;3.52;;
9485;SDS011;4781;48.776;9.200;2022-07-23T16:08:04;5.72;;;3.42;;
9485;SDS011;4781;48.776;9.200;2022-07-23T16:10:32;6.90;;;3.65;;
9485;SDS011;4781;48.776;9.200;2022-07-23T16:13:01;6.53;;;3.87;;